Time;durP1;ratioP1;P1;durP2;ratioP2;P2;SDS_P1;SDS_P2;PMS_P1;PMS_P2;Temp;Humidity;BMP_temperature;BMP_pressure;BME280_temperature;BME280_humidity;BME280_pressure;Samples;Min_cycle;Max_cycle;Signal;HPM_P1;HPM_P2
2022/01/21 00:02:19;;;;;;;0.00;0.00;;;3.10;99.90;;;;;;5054058;28;20052;-71
2022/01/21 00:04:45;;;;;;;4.97;1.95;;;3.10;99.90;;;;;;5054369;28;20037;-71
2022/01/21 00:07:11;;;;;;;0.70;0.70;;;3.10;99.90;;;;;;5053889;28;20029;-72
2022/01/21 00:09:37;;;;;;;0.10;0.10;;;3.00;99.90;;;;;;5054416;28;20158;-71
2022/01/21 00:12:03;;;;;;;0.10;0.10;;;3.00;99.90;;;;;;5069278;28;20090;-71
2022/01/21 00:14:29;;;;;;;0.10;0.10;;;3.00;99.90;;;;;;5054054;28;20072;-72
2022/01/21 00:16:54;;;;;;;0.00;0.00;;;2.90;99.90;;;;;;5069765;28;20427;-72
2022/01/21 00:19:23;;;;;;;0.20;0.20;;;2.90;99.90;;;;;;5069198;28;20029;-72
2022/01/21 00:30:14;;;;;;;0.10;0.10;;;2.80;99.90;;;;;;5053892;28;20116;-72
2022/01/21 00:32:48;;;;;;;0.10;0.10;;;2.70;99.90;;;;;;5053590;28;20493;-71
2022/01/21 00:35:16;;;;;;;2.55;2.38;;;2.80;99.90;;;;;;5068979;28;20477;-71
2022/01/21 00:37:42;;;;;;;0.20;0.20;;;2.80;99.90;;;;;;5052305;28;20041;-71
2022/01/21 00:40:14;;;;;;;0.20;0.20;;;2.70;99.90;;;;;;5052621;28;20036;-71
2022/01/21 00:45:12;;;;;;;0.00;0.00;;;2.80;99.90;;;;;;5053491;28;20036;-70
2022/01/21 00:47:38;;;;;;;0.00;0.00;;;2.80;99.90;;;;;;5052203;28;20207;-71
2022/01/21 00:50:05;;;;;;;0.10;0.10;;;2.70;99.90;;;;;;5068963;28;20036;-71
2022/01/21 00:52:31;;;;;;;1.15;0.50;;;2.70;99.90;;;;;;5053283;28;20044;-72
2022/01/21 00:54:57;;;;;;;0.10;0.10;;;2.70;99.90;;;;;;5053656;28;20482;-71
2022/01/21 00:57:23;;;;;;;0.68;0.65;;;2.70;99.90;;;;;;5053308;28;20068;-73
2022/01/21 00:59:48;;;;;;;0.00;0.00;;;2.80;99.90;;;;;;5053146;28;20068;-72
2022/01/21 01:02:14;;;;;;;0.40;0.40;;;2.70;99.90;;;;;;5053030;28;20029;-72
2022/01/21 01:04:40;;;;;;;0.10;0.10;;;2.80;99.90;;;;;;5053228;28;20041;-71
2022/01/21 01:07:06;;;;;;;0.30;0.30;;;2.80;99.90;;;;;;5068250;28;20025;-71
2022/01/21 01:09:33;;;;;;;0.20;0.20;;;2.80;99.90;;;;;;5068745;28;20041;-71
2022/01/21 01:20:02;;;;;;;0.00;0.00;;;2.70;99.90;;;;;;5052825;28;20033;-71
2022/01/21 01:23:01;;;;;;;0.10;0.10;;;2.60;99.90;;;;;;5052737;28;20052;-72
2022/01/21 01:28:11;;;;;;;0.10;0.10;;;2.70;99.90;;;;;;5065773;28;20041;-71
2022/01/21 01:30:37;;;;;;;0.03;0.03;;;2.70;99.90;;;;;;5052397;28;20037;-72
2022/01/21 01:33:08;;;;;;;0.10;0.10;;;2.60;99.90;;;;;;5052734;28;20065;-71
2022/01/21 01:35:35;;;;;;;0.00;0.00;;;2.60;99.90;;;;;;5051386;28;20047;-71
2022/01/21 01:41:00;;;;;;;0.10;0.10;;;2.50;99.90;;;;;;5034019;28;20112;-72
2022/01/21 01:51:22;;;;;;;0.10;0.10;;;2.20;99.90;;;;;;5052031;28;20029;-71
2022/01/21 01:53:53;;;;;;;0.00;0.00;;;2.20;99.90;;;;;;5052296;28;20037;-71
2022/01/21 01:56:26;;;;;;;0.03;0.03;;;2.10;99.90;;;;;;5067364;28;20105;-71
2022/01/21 01:58:52;;;;;;;0.00;0.00;;;2.10;99.90;;;;;;5052274;28;20036;-71
2022/01/21 02:01:18;;;;;;;0.43;0.43;;;2.10;99.90;;;;;;5052082;28;20040;-71
2022/01/21 02:03:44;;;;;;;1.55;1.45;;;2.00;99.90;;;;;;5067382;28;20041;-71
2022/01/21 02:06:10;;;;;;;0.25;0.25;;;1.90;99.90;;;;;;5067088;28;20044;-71
2022/01/21 02:08:36;;;;;;;0.30;0.30;;;1.90;99.90;;;;;;5067642;28;20033;-70
2022/01/21 02:11:02;;;;;;;0.10;0.10;;;1.90;99.90;;;;;;5067224;28;20079;-70
2022/01/21 02:13:34;;;;;;;0.10;0.10;;;1.80;99.90;;;;;;5050270;28;20041;-70
2022/01/21 02:16:12;;;;;;;0.10;0.10;;;1.70;99.90;;;;;;5051927;28;20029;-70
2022/01/21 02:23:55;;;;;;;0.10;0.10;;;1.80;99.90;;;;;;5050952;28;20116;-70
2022/01/21 02:26:22;;;;;;;0.10;0.10;;;1.80;99.90;;;;;;5051760;28;20082;-70
2022/01/21 02:28:48;;;;;;;0.10;0.10;;;1.90;99.90;;;;;;5066972;28;20389;-71
2022/01/21 02:31:14;;;;;;;0.15;0.15;;;1.90;99.90;;;;;;5051266;28;20053;-71
2022/01/21 02:33:40;;;;;;;0.10;0.10;;;2.00;99.90;;;;;;5051589;28;20037;-71
2022/01/21 02:36:05;;;;;;;0.10;0.10;;;1.90;99.90;;;;;;5051579;28;20029;-71
2022/01/21 02:38:31;;;;;;;0.00;0.00;;;1.80;99.90;;;;;;5067029;28;20430;-71
2022/01/21 02:40:57;;;;;;;11.85;2.72;;;1.90;99.90;;;;;;5066921;28;20638;-71
2022/01/21 02:43:23;;;;;;;0.35;0.35;;;2.00;99.90;;;;;;5050380;28;20033;-71
2022/01/21 02:45:49;;;;;;;0.80;0.80;;;2.00;99.90;;;;;;5051447;28;20044;-71
2022/01/21 02:48:15;;;;;;;0.63;0.63;;;2.00;99.90;;;;;;5050002;28;20032;-71
2022/01/21 02:50:41;;;;;;;0.10;0.10;;;1.90;99.90;;;;;;5051693;28;20032;-71
2022/01/21 02:53:23;;;;;;;0.10;0.10;;;2.00;99.90;;;;;;5051288;28;20501;-71
2022/01/21 02:55:49;;;;;;;0.10;0.10;;;1.90;99.90;;;;;;5050521;28;20029;-71
2022/01/21 02:58:15;;;;;;;0.10;0.10;;;1.90;99.90;;;;;;5051513;28;20474;-71
2022/01/21 03:00:41;;;;;;;0.10;0.10;;;1.80;99.90;;;;;;5053898;28;20029;-71
2022/01/21 03:03:07;;;;;;;0.10;0.10;;;1.80;99.90;;;;;;5070973;28;20374;-71
2022/01/21 03:05:35;;;;;;;0.10;0.10;;;1.80;99.90;;;;;;5055485;28;20033;-72
2022/01/21 03:08:02;;;;;;;1.08;1.00;;;1.80;99.90;;;;;;5055414;28;20029;-72
2022/01/21 03:10:28;;;;;;;0.15;0.15;;;1.70;99.90;;;;;;5055185;28;20086;-72
2022/01/21 03:12:54;;;;;;;0.10;0.10;;;1.70;99.90;;;;;;5070489;28;20037;-71
2022/01/21 03:15:20;;;;;;;0.10;0.10;;;1.70;99.90;;;;;;5055386;28;20177;-71
2022/01/21 03:17:46;;;;;;;0.30;0.30;;;1.60;99.90;;;;;;5055089;28;20037;-71
2022/01/21 03:20:13;;;;;;;0.30;0.30;;;1.70;99.90;;;;;;5070344;28;20044;-71
2022/01/21 03:22:39;;;;;;;0.10;0.10;;;1.70;99.90;;;;;;5055010;28;20052;-71
2022/01/21 03:25:07;;;;;;;0.10;0.10;;;1.70;99.90;;;;;;5053830;28;20033;-71
2022/01/21 03:27:33;;;;;;;0.15;0.15;;;1.60;99.90;;;;;;5070306;28;20053;-71
2022/01/21 03:29:59;;;;;;;3.03;2.63;;;1.60;99.90;;;;;;5055108;28;20037;-72
2022/01/21 03:32:26;;;;;;;0.40;0.40;;;1.60;99.90;;;;;;5054397;28;20431;-72
2022/01/21 03:34:51;;;;;;;0.00;0.00;;;1.60;99.90;;;;;;5054567;28;20490;-72
2022/01/21 03:37:18;;;;;;;0.10;0.10;;;1.60;99.90;;;;;;5054641;28;20048;-72
2022/01/21 03:39:43;;;;;;;0.10;0.10;;;1.60;99.90;;;;;;5070086;28;20040;-71
2022/01/21 03:42:09;;;;;;;0.17;0.17;;;1.60;99.90;;;;;;5070441;28;20425;-72
2022/01/21 03:44:35;;;;;;;0.10;0.10;;;1.50;99.90;;;;;;5054861;28;20029;-72
2022/01/21 03:47:02;;;;;;;0.10;0.10;;;1.60;99.90;;;;;;5069802;28;20028;-72
2022/01/21 03:49:29;;;;;;;0.52;0.52;;;1.50;99.90;;;;;;5054773;28;20036;-72
2022/01/21 03:51:54;;;;;;;1.05;1.05;;;1.50;99.90;;;;;;5053015;28;20067;-71
2022/01/21 03:54:20;;;;;;;0.10;0.10;;;1.60;99.90;;;;;;5069663;28;20053;-71
2022/01/21 03:56:46;;;;;;;0.10;0.10;;;1.50;99.90;;;;;;5054777;28;20024;-72
2022/01/21 03:59:11;;;;;;;0.17;0.17;;;1.50;99.90;;;;;;5054325;28;20051;-72
2022/01/21 04:01:37;;;;;;;0.20;0.20;;;1.50;99.90;;;;;;5054203;28;20033;-72
2022/01/21 04:04:03;;;;;;;0.00;0.00;;;1.50;99.90;;;;;;5054527;28;20033;-71
2022/01/21 04:06:29;;;;;;;0.08;0.08;;;1.50;99.90;;;;;;5069777;28;20237;-72
2022/01/21 04:08:55;;;;;;;0.10;0.10;;;1.40;99.90;;;;;;5054673;28;20036;-72
2022/01/21 04:11:21;;;;;;;1.92;1.77;;;1.30;99.90;;;;;;5053544;28;20029;-71
2022/01/21 04:13:47;;;;;;;0.10;0.10;;;1.50;99.90;;;;;;5054358;28;20080;-71
2022/01/21 04:16:12;;;;;;;0.10;0.10;;;1.50;99.90;;;;;;5069612;28;20112;-70
2022/01/21 04:18:38;;;;;;;0.10;0.10;;;1.40;99.90;;;;;;5054177;28;20052;-71
2022/01/21 04:21:04;;;;;;;0.05;0.05;;;1.30;99.90;;;;;;5052975;28;20037;-71
2022/01/21 04:23:30;;;;;;;0.10;0.10;;;1.30;99.90;;;;;;5053829;28;20055;-70
2022/01/21 04:25:56;;;;;;;0.30;0.30;;;1.20;99.90;;;;;;5054203;28;20094;-71
2022/01/21 04:28:22;;;;;;;0.10;0.10;;;1.20;99.90;;;;;;5053754;28;20040;-71
2022/01/21 04:30:48;;;;;;;0.20;0.20;;;1.20;99.90;;;;;;5053816;28;20564;-71
2022/01/21 04:33:14;;;;;;;0.10;0.10;;;1.20;99.90;;;;;;5052365;28;20039;-71
2022/01/21 04:35:40;;;;;;;0.10;0.10;;;1.10;99.90;;;;;;5053533;28;20025;-71
2022/01/21 04:38:09;;;;;;;0.10;0.10;;;1.10;99.90;;;;;;5068977;28;20040;-71
2022/01/21 04:40:42;;;;;;;0.20;0.20;;;1.10;99.90;;;;;;5068741;28;20040;-71
2022/01/21 04:48:37;;;;;;;0.10;0.10;;;1.20;99.90;;;;;;5066582;28;20087;-71
2022/01/21 04:51:18;;;;;;;0.10;0.10;;;1.30;99.90;;;;;;5069206;28;20036;-71
2022/01/21 04:53:48;;;;;;;1.17;1.10;;;1.30;99.90;;;;;;5066975;28;20116;-71
2022/01/21 04:56:15;;;;;;;0.28;0.28;;;1.30;99.90;;;;;;5068679;28;20067;-70
2022/01/21 04:58:42;;;;;;;0.10;0.10;;;1.30;99.90;;;;;;5068734;28;20029;-72
2022/01/21 05:01:10;;;;;;;0.20;0.20;;;1.40;99.90;;;;;;5078035;28;20048;-72
2022/01/21 05:03:38;;;;;;;0.30;0.30;;;1.40;99.90;;;;;;5038787;28;20107;-72
2022/01/21 05:06:05;;;;;;;0.22;0.22;;;1.40;99.90;;;;;;5052007;28;20120;-71
2022/01/21 05:08:41;;;;;;;0.63;0.63;;;1.50;99.90;;;;;;5052876;28;20461;-72
2022/01/21 05:11:07;;;;;;;0.17;0.17;;;1.50;99.90;;;;;;5053010;28;20052;-72
2022/01/21 05:13:40;;;;;;;0.10;0.10;;;1.50;99.90;;;;;;5053086;28;20033;-74
2022/01/21 05:16:31;;;;;;;0.10;0.10;;;1.50;99.90;;;;;;5051978;28;20025;-77
2022/01/21 05:19:01;;;;;;;0.10;0.10;;;1.60;99.90;;;;;;5068409;28;20037;-76
2022/01/21 05:21:27;;;;;;;0.52;0.52;;;1.50;99.90;;;;;;5034732;28;20029;-77
2022/01/21 05:23:53;;;;;;;0.10;0.10;;;1.50;99.90;;;;;;5052728;28;20477;-78
2022/01/21 05:26:19;;;;;;;0.10;0.10;;;1.50;99.90;;;;;;5051569;28;20039;-77
2022/01/21 05:28:45;;;;;;;0.00;0.00;;;1.50;99.90;;;;;;5052928;28;20037;-74
2022/01/21 05:31:10;;;;;;;8.38;0.43;;;1.40;99.90;;;;;;5052547;28;20037;-74
2022/01/21 05:33:36;;;;;;;0.20;0.20;;;1.50;99.90;;;;;;5052428;28;20112;-75
2022/01/21 05:36:02;;;;;;;0.10;0.10;;;1.50;99.90;;;;;;5052859;28;20445;-74
2022/01/21 05:38:28;;;;;;;1.75;1.20;;;1.30;99.90;;;;;;5051564;28;20044;-74
2022/01/21 05:40:59;;;;;;;0.80;0.80;;;1.20;99.90;;;;;;5052810;28;20031;-75
2022/01/21 05:43:25;;;;;;;6.40;2.97;;;1.20;99.90;;;;;;5052388;28;20037;-75
2022/01/21 05:48:35;;;;;;;0.25;0.25;;;1.10;99.90;;;;;;5052383;28;20048;-73
2022/01/21 05:51:01;;;;;;;0.10;0.10;;;1.00;99.90;;;;;;5052529;28;20037;-74
2022/01/21 05:53:27;;;;;;;0.10;0.10;;;0.90;99.90;;;;;;5051176;28;20033;-72
2022/01/21 05:55:54;;;;;;;0.32;0.32;;;0.90;99.90;;;;;;5052124;28;20039;-74
2022/01/21 05:58:19;;;;;;;0.10;0.10;;;0.90;99.90;;;;;;5050678;28;20028;-74
2022/01/21 06:00:47;;;;;;;0.10;0.10;;;0.80;99.90;;;;;;5052067;28;20029;-73
2022/01/21 06:03:13;;;;;;;0.10;0.10;;;0.90;99.90;;;;;;5051917;28;20069;-74
2022/01/21 06:05:39;;;;;;;0.10;0.10;;;0.90;99.90;;;;;;5051837;28;20057;-73
2022/01/21 06:08:05;;;;;;;0.10;0.10;;;0.90;99.90;;;;;;5052083;28;20028;-74
2022/01/21 06:10:31;;;;;;;0.10;0.10;;;0.90;99.90;;;;;;5052149;28;20021;-73
2022/01/21 06:12:57;;;;;;;0.63;0.57;;;0.90;99.90;;;;;;5051765;28;20094;-73
2022/01/21 06:15:24;;;;;;;0.20;0.20;;;0.90;99.90;;;;;;5051702;28;20032;-74
2022/01/21 06:17:51;;;;;;;0.88;0.88;;;0.80;99.90;;;;;;5067528;28;20481;-75
2022/01/21 06:20:17;;;;;;;0.10;0.10;;;0.80;99.90;;;;;;5051665;28;20040;-75
2022/01/21 06:22:43;;;;;;;0.10;0.10;;;0.70;99.90;;;;;;5052028;28;20033;-74
2022/01/21 06:25:09;;;;;;;0.10;0.10;;;0.70;99.90;;;;;;5051882;28;20089;-75
2022/01/21 06:27:36;;;;;;;0.17;0.17;;;0.80;99.90;;;;;;5050482;28;20040;-73
2022/01/21 06:30:05;;;;;;;0.20;0.20;;;0.80;99.90;;;;;;5052019;28;20029;-75
2022/01/21 06:32:34;;;;;;;0.10;0.10;;;0.80;99.90;;;;;;5050961;28;20383;-75
2022/01/21 06:35:00;;;;;;;0.30;0.30;;;0.80;99.90;;;;;;5051988;28;20075;-76
2022/01/21 06:37:26;;;;;;;0.10;0.10;;;0.80;99.90;;;;;;5050188;28;20036;-75
2022/01/21 06:39:52;;;;;;;0.13;0.13;;;0.70;99.90;;;;;;5051851;28;20047;-76
2022/01/21 06:42:22;;;;;;;0.20;0.20;;;0.70;99.90;;;;;;5051278;28;20394;-76
2022/01/21 06:44:48;;;;;;;0.32;0.32;;;0.70;99.90;;;;;;5050116;28;20504;-76
2022/01/21 06:47:14;;;;;;;0.15;0.15;;;0.80;99.90;;;;;;5051723;28;20112;-76
2022/01/21 06:49:40;;;;;;;0.10;0.10;;;0.70;99.90;;;;;;5066475;28;20444;-76
2022/01/21 06:52:06;;;;;;;0.20;0.20;;;0.70;99.90;;;;;;5051665;28;20033;-75
2022/01/21 06:54:32;;;;;;;0.10;0.10;;;0.70;99.90;;;;;;5057456;28;20689;-74
2022/01/21 06:56:57;;;;;;;3.28;2.90;;;0.70;99.90;;;;;;5071198;28;20639;-75
2022/01/21 06:59:23;;;;;;;0.85;0.85;;;0.70;99.90;;;;;;5070113;28;20043;-77
2022/01/21 07:01:58;;;;;;;0.10;0.10;;;0.70;99.90;;;;;;5071041;28;20112;-72
2022/01/21 07:04:24;;;;;;;0.50;0.50;;;0.80;99.90;;;;;;5070150;28;20080;-73
2022/01/21 07:06:50;;;;;;;1.85;1.75;;;0.70;99.90;;;;;;5069548;28;20032;-73
2022/01/21 07:09:16;;;;;;;1.58;1.48;;;0.80;99.90;;;;;;5050465;28;20033;-72
2022/01/21 07:11:42;;;;;;;0.10;0.10;;;0.80;99.90;;;;;;5051189;28;20029;-73
2022/01/21 07:14:08;;;;;;;0.10;0.10;;;0.80;99.90;;;;;;5051389;28;20041;-73
2022/01/21 07:16:33;;;;;;;1.05;1.05;;;0.70;99.90;;;;;;5050972;28;20036;-72
2022/01/21 07:18:59;;;;;;;0.17;0.17;;;0.80;99.90;;;;;;5049979;28;20164;-72
2022/01/21 07:21:25;;;;;;;0.10;0.10;;;0.90;99.90;;;;;;5051253;28;20359;-72
2022/01/21 07:23:51;;;;;;;0.20;0.20;;;1.00;99.90;;;;;;5050892;28;20422;-72
2022/01/21 07:26:17;;;;;;;0.10;0.10;;;1.00;99.90;;;;;;5050967;28;20457;-73
2022/01/21 07:28:43;;;;;;;0.10;0.10;;;1.00;99.90;;;;;;5049796;28;20120;-73
2022/01/21 07:31:09;;;;;;;0.00;0.00;;;1.00;99.90;;;;;;5049772;28;20049;-73
2022/01/21 07:33:36;;;;;;;0.30;0.30;;;1.00;99.90;;;;;;5050786;28;20029;-73
2022/01/21 07:36:03;;;;;;;0.75;0.75;;;1.00;99.90;;;;;;5050128;28;20029;-72
2022/01/21 07:38:29;;;;;;;0.20;0.20;;;1.00;99.90;;;;;;5050922;28;20482;-70
2022/01/21 07:40:54;;;;;;;0.10;0.10;;;1.00;99.90;;;;;;5049884;28;20036;-71
2022/01/21 07:43:20;;;;;;;0.10;0.10;;;0.90;99.90;;;;;;5050029;28;20033;-71
2022/01/21 07:45:46;;;;;;;0.10;0.10;;;0.90;99.90;;;;;;5051399;28;20033;-71
2022/01/21 07:48:12;;;;;;;0.10;0.10;;;1.00;99.90;;;;;;5054638;28;20034;-71
2022/01/21 07:50:39;;;;;;;0.15;0.15;;;1.00;99.90;;;;;;5054744;28;20048;-72
2022/01/21 07:53:05;;;;;;;0.10;0.10;;;1.00;99.90;;;;;;5054397;28;20044;-71
2022/01/21 07:55:31;;;;;;;0.10;0.10;;;1.10;99.90;;;;;;5053405;28;20029;-71
2022/01/21 07:57:57;;;;;;;5.15;3.97;;;1.20;99.90;;;;;;5054725;28;20029;-71
2022/01/21 08:00:24;;;;;;;0.10;0.10;;;1.30;99.90;;;;;;5054565;28;20037;-71
2022/01/21 08:02:52;;;;;;;2.65;1.17;;;1.30;99.90;;;;;;5054512;28;20033;-74
2022/01/21 08:05:18;;;;;;;0.30;0.30;;;1.30;99.90;;;;;;5037719;28;20724;-73
2022/01/21 08:07:44;;;;;;;0.10;0.10;;;1.30;99.90;;;;;;5054111;28;20116;-72
2022/01/21 08:10:09;;;;;;;0.10;0.10;;;1.40;99.90;;;;;;5053198;28;20040;-72
2022/01/21 08:12:35;;;;;;;27.58;3.08;;;1.50;99.90;;;;;;5054039;28;20473;-73
2022/01/21 08:15:02;;;;;;;1.48;1.42;;;1.50;99.90;;;;;;5054196;28;20390;-73
2022/01/21 08:17:29;;;;;;;1.10;1.10;;;1.40;99.90;;;;;;5052800;28;20498;-74
2022/01/21 08:19:59;;;;;;;0.17;0.17;;;1.40;99.90;;;;;;5054408;28;20032;-74
2022/01/21 08:22:27;;;;;;;0.10;0.10;;;1.40;99.90;;;;;;5053097;28;20075;-74
2022/01/21 08:24:53;;;;;;;6.22;1.08;;;1.50;99.90;;;;;;5054085;28;20120;-74
2022/01/21 08:27:19;;;;;;;0.40;0.40;;;1.50;99.90;;;;;;5069339;28;20120;-74
2022/01/21 08:29:45;;;;;;;0.30;0.30;;;1.60;99.90;;;;;;5053943;28;20037;-73
2022/01/21 08:32:12;;;;;;;0.10;0.10;;;1.60;99.90;;;;;;5053652;28;20045;-73
2022/01/21 08:34:38;;;;;;;0.00;0.00;;;1.50;99.90;;;;;;5052500;28;20650;-74
2022/01/21 08:37:04;;;;;;;0.73;0.73;;;1.50;99.90;;;;;;5054065;28;20037;-73
2022/01/21 08:39:30;;;;;;;0.00;0.00;;;1.50;99.90;;;;;;5053983;28;20116;-74
2022/01/21 08:41:56;;;;;;;0.10;0.10;;;1.60;99.90;;;;;;5053346;28;20029;-74
2022/01/21 08:44:22;;;;;;;0.10;0.10;;;1.70;99.90;;;;;;5053723;28;20093;-73
2022/01/21 08:46:48;;;;;;;0.10;0.10;;;1.70;99.90;;;;;;5056861;28;20037;-74
2022/01/21 08:49:14;;;;;;;0.20;0.20;;;1.80;99.90;;;;;;5072187;28;20385;-73
2022/01/21 08:51:50;;;;;;;0.10;0.10;;;1.90;99.90;;;;;;5073416;28;20045;-74
2022/01/21 08:54:16;;;;;;;3.17;1.13;;;1.90;99.90;;;;;;5072644;28;20036;-73
2022/01/21 08:56:44;;;;;;;0.75;0.38;;;1.90;99.90;;;;;;5072988;28;20056;-73
2022/01/21 08:59:10;;;;;;;1.92;1.25;;;1.90;99.90;;;;;;5073522;28;20123;-73
2022/01/21 09:01:35;;;;;;;0.43;0.43;;;2.00;99.90;;;;;;5073075;28;20115;-74
2022/01/21 09:04:03;;;;;;;0.15;0.15;;;2.00;99.90;;;;;;5073708;28;20094;-72
2022/01/21 09:06:29;;;;;;;0.10;0.10;;;2.10;99.90;;;;;;5071910;28;20036;-73
2022/01/21 09:08:59;;;;;;;0.10;0.10;;;2.10;99.90;;;;;;5072245;28;20085;-73
2022/01/21 09:11:25;;;;;;;0.55;0.55;;;2.10;99.90;;;;;;5073223;28;20036;-73
2022/01/21 09:13:52;;;;;;;2.17;1.55;;;2.20;99.90;;;;;;5055200;28;20029;-73
2022/01/21 09:16:19;;;;;;;4.05;2.28;;;2.30;99.90;;;;;;5063912;28;20513;-73
2022/01/21 09:18:48;;;;;;;0.75;0.75;;;2.40;99.90;;;;;;5053063;28;20124;-74
2022/01/21 09:21:17;;;;;;;0.63;0.63;;;2.50;99.90;;;;;;5053223;28;20162;-75
2022/01/21 09:23:47;;;;;;;0.10;0.10;;;2.60;99.90;;;;;;5053142;28;20036;-73
2022/01/21 09:26:14;;;;;;;0.08;0.08;;;2.50;99.90;;;;;;5052953;28;20486;-74
2022/01/21 09:28:40;;;;;;;0.43;0.43;;;2.60;99.90;;;;;;5052752;28;20158;-73
2022/01/21 09:31:06;;;;;;;0.00;0.00;;;2.60;99.90;;;;;;5051178;28;20131;-73
2022/01/21 09:33:31;;;;;;;0.20;0.20;;;2.70;99.90;;;;;;5051578;28;20037;-73
2022/01/21 09:35:57;;;;;;;0.10;0.10;;;2.70;99.90;;;;;;5051685;28;20044;-73
2022/01/21 09:38:24;;;;;;;0.20;0.20;;;2.80;99.90;;;;;;5052568;28;20044;-73
2022/01/21 09:40:51;;;;;;;0.20;0.20;;;2.70;99.90;;;;;;5052594;28;20048;-73
2022/01/21 09:43:19;;;;;;;0.35;0.35;;;2.80;99.90;;;;;;5052731;28;20036;-75
2022/01/21 09:45:51;;;;;;;0.25;0.25;;;2.80;99.90;;;;;;5052559;28;20028;-74
2022/01/21 09:48:28;;;;;;;0.00;0.00;;;2.90;99.90;;;;;;5052349;28;20083;-74
2022/01/21 09:51:00;;;;;;;0.20;0.20;;;2.90;99.90;;;;;;5051046;28;20040;-74
2022/01/21 09:53:34;;;;;;;0.05;0.05;;;2.90;99.90;;;;;;5052658;28;20540;-71
2022/01/21 09:56:03;;;;;;;0.10;0.10;;;2.90;99.90;;;;;;5052487;28;20032;-73
2022/01/21 09:58:30;;;;;;;0.00;0.00;;;2.80;99.90;;;;;;5052373;28;20566;-73
2022/01/21 10:01:00;;;;;;;0.10;0.10;;;3.00;99.90;;;;;;5050981;28;20033;-73
2022/01/21 10:03:26;;;;;;;0.55;0.55;;;3.10;99.90;;;;;;5067699;28;20107;-73
2022/01/21 10:05:54;;;;;;;0.10;0.10;;;3.30;99.90;;;;;;5051159;28;20036;-73
2022/01/21 10:08:23;;;;;;;0.08;0.08;;;3.40;99.90;;;;;;5051652;28;20029;-73
2022/01/21 10:10:50;;;;;;;1.75;1.65;;;3.50;99.90;;;;;;5051439;28;20124;-73
2022/01/21 10:13:19;;;;;;;0.10;0.10;;;3.50;99.90;;;;;;5050913;28;20037;-73
2022/01/21 10:15:48;;;;;;;0.20;0.20;;;3.60;99.90;;;;;;5050456;28;20032;-74
2022/01/21 10:18:21;;;;;;;0.00;0.00;;;3.80;99.90;;;;;;5051006;28;20033;-74
2022/01/21 10:20:58;;;;;;;0.10;0.10;;;4.00;99.90;;;;;;5067115;28;20051;-75
2022/01/21 10:23:26;;;;;;;0.25;0.25;;;3.80;99.90;;;;;;5051725;28;20072;-79
2022/01/21 10:26:09;;;;;;;0.20;0.20;;;3.90;99.90;;;;;;5051327;28;20223;-82
2022/01/21 10:28:37;;;;;;;0.10;0.10;;;4.00;99.90;;;;;;5052316;28;20110;-83
2022/01/21 10:31:18;;;;;;;0.00;0.00;;;3.90;99.90;;;;;;5052523;28;20048;-80
2022/01/21 10:33:48;;;;;;;0.40;0.40;;;3.90;99.90;;;;;;5050692;28;20040;-82
2022/01/21 10:36:32;;;;;;;0.85;0.85;;;4.00;99.90;;;;;;5052350;28;20047;-85
2022/01/21 10:41:42;;;;;;;0.10;0.10;;;3.90;99.90;;;;;;5051788;28;20029;-81
2022/01/21 10:44:14;;;;;;;0.20;0.20;;;3.80;99.90;;;;;;5034683;28;20029;-82
2022/01/21 10:46:59;;;;;;;0.15;0.15;;;3.70;99.90;;;;;;5034416;28;20029;-81
2022/01/21 10:49:25;;;;;;;0.15;0.15;;;3.70;99.90;;;;;;5051968;28;20064;-77
2022/01/21 10:51:52;;;;;;;0.00;0.00;;;3.70;99.90;;;;;;5051711;28;20060;-79
2022/01/21 10:54:26;;;;;;;0.00;0.00;;;3.70;99.90;;;;;;5071814;28;20040;-76
2022/01/21 10:57:12;;;;;;;0.00;0.00;;;3.70;99.90;;;;;;5071610;28;20024;-78
2022/01/21 10:59:47;;;;;;;0.52;0.52;;;3.80;99.90;;;;;;5068351;28;20036;-75
2022/01/21 11:02:13;;;;;;;0.95;0.95;;;4.00;99.90;;;;;;5072187;28;20036;-81
2022/01/21 11:04:43;;;;;;;0.10;0.10;;;4.00;99.90;;;;;;5071119;28;20060;-85
2022/01/21 11:07:13;;;;;;;1.55;1.45;;;4.00;99.90;;;;;;5070182;28;20017;-84
2022/01/21 11:09:39;;;;;;;4.25;1.08;;;4.00;99.90;;;;;;5070111;28;20028;-75
2022/01/21 11:12:16;;;;;;;0.10;0.10;;;4.10;99.90;;;;;;5071368;28;20031;-79
2022/01/21 11:15:08;;;;;;;1.08;1.08;;;4.00;99.90;;;;;;5071395;28;20028;-79
2022/01/21 11:17:36;;;;;;;;;;;4.20;99.90;;;;;;5070996;28;20029;-79
2022/01/21 11:20:16;;;;;;;0.08;0.08;;;4.40;99.90;;;;;;5054536;28;19912;-77
2022/01/21 11:22:58;;;;;;;0.10;0.10;;;4.30;99.90;;;;;;5074960;28;20028;-78
2022/01/21 11:25:46;;;;;;;0.10;0.10;;;4.30;99.90;;;;;;5075374;28;20435;-78
2022/01/21 11:28:36;;;;;;;0.10;0.10;;;4.20;99.90;;;;;;5073977;28;20033;-78
2022/01/21 11:31:04;;;;;;;0.00;0.00;;;4.20;99.90;;;;;;5074055;28;20520;-78
2022/01/21 11:33:30;;;;;;;0.00;0.00;;;4.20;99.90;;;;;;5074771;28;20043;-78
2022/01/21 11:35:55;;;;;;;0.10;0.10;;;4.20;99.90;;;;;;5075080;28;20695;-78
2022/01/21 11:38:25;;;;;;;0.10;0.10;;;4.10;99.90;;;;;;5074961;28;20029;-78
2022/01/21 11:40:53;;;;;;;0.20;0.20;;;4.00;99.90;;;;;;5075059;28;20055;-78
2022/01/21 11:43:19;;;;;;;0.10;0.10;;;4.00;99.90;;;;;;5073874;28;20036;-79
2022/01/21 11:48:50;;;;;;;0.32;0.32;;;4.30;99.90;;;;;;5073692;28;20063;-78
2022/01/21 11:51:26;;;;;;;0.00;0.00;;;4.60;99.90;;;;;;5073497;28;20029;-78
2022/01/21 11:53:57;;;;;;;0.10;0.10;;;4.90;99.90;;;;;;5073172;28;20415;-78
2022/01/21 11:57:11;;;;;;;0.40;0.40;;;4.90;99.90;;;;;;5073560;28;20032;-78
2022/01/21 12:02:13;;;;;;;0.10;0.10;;;5.00;99.90;;;;;;5073622;28;20112;-78
2022/01/21 12:04:52;;;;;;;0.08;0.08;;;5.20;99.90;;;;;;5073357;28;20501;-78
2022/01/21 12:07:44;;;;;;;0.10;0.10;;;5.20;99.90;;;;;;5074656;28;20051;-79
2022/01/21 12:10:22;;;;;;;0.03;0.03;;;5.20;99.90;;;;;;5074196;28;20024;-78
2022/01/21 12:15:30;;;;;;;0.00;0.00;;;5.30;99.90;;;;;;5074570;28;20040;-78
2022/01/21 12:20:48;;;;;;;0.10;0.10;;;5.30;99.90;;;;;;5074046;28;20032;-78
2022/01/21 12:23:17;;;;;;;0.10;0.10;;;5.50;99.90;;;;;;5072946;28;20124;-77
2022/01/21 12:26:14;;;;;;;2.90;2.70;;;5.40;99.90;;;;;;5074023;28;20040;-77
2022/01/21 12:28:43;;;;;;;0.00;0.00;;;5.60;99.90;;;;;;5074092;28;20040;-78
2022/01/21 12:31:11;;;;;;;0.85;0.30;;;5.60;99.90;;;;;;5073338;28;20110;-77
2022/01/21 12:36:20;;;;;;;0.00;0.00;;;6.00;99.90;;;;;;5073802;28;20048;-78
2022/01/21 12:41:17;;;;;;;1.13;1.08;;;5.80;99.90;;;;;;5072635;28;20025;-79
2022/01/21 12:43:48;;;;;;;0.00;0.00;;;5.90;99.90;;;;;;5072434;28;20040;-77
2022/01/21 12:46:17;;;;;;;0.00;0.00;;;6.20;99.90;;;;;;5073578;28;20040;-77
2022/01/21 12:48:47;;;;;;;0.85;0.85;;;6.50;99.90;;;;;;5073514;28;20033;-77
2022/01/21 12:51:21;;;;;;;0.50;0.50;;;6.50;99.90;;;;;;5071951;28;20028;-77
2022/01/21 12:56:58;;;;;;;0.00;0.00;;;6.40;99.90;;;;;;5072087;28;20094;-77
2022/01/21 12:59:26;;;;;;;;;;;6.10;99.90;;;;;;5073958;28;20025;-76
2022/01/21 13:01:53;;;;;;;0.00;0.00;;;6.10;99.90;;;;;;5072416;28;20352;-77
2022/01/21 13:04:50;;;;;;;0.00;0.00;;;6.00;99.90;;;;;;5073421;28;20440;-77
2022/01/21 13:07:31;;;;;;;0.00;0.00;;;5.80;99.90;;;;;;5073269;28;20036;-78
2022/01/21 13:10:22;;;;;;;0.10;0.10;;;5.80;99.90;;;;;;5072000;28;20060;-78
2022/01/21 13:15:52;;;;;;;0.00;0.00;;;5.70;99.90;;;;;;5071733;28;20033;-77
2022/01/21 13:18:31;;;;;;;0.10;0.10;;;5.60;99.90;;;;;;5051708;28;20123;-77
2022/01/21 13:21:04;;;;;;;0.00;0.00;;;5.60;99.90;;;;;;5052042;28;20110;-78
2022/01/21 13:23:43;;;;;;;0.20;0.20;;;5.60;99.90;;;;;;5051885;28;20033;-78
2022/01/21 13:26:21;;;;;;;0.08;0.08;;;5.60;99.90;;;;;;5052174;28;20033;-78
2022/01/21 13:29:13;;;;;;;0.00;0.00;;;5.60;99.90;;;;;;5053042;28;20393;-78
2022/01/21 13:31:51;;;;;;;0.00;0.00;;;5.50;99.90;;;;;;5047737;28;20554;-78
2022/01/21 13:34:25;;;;;;;0.00;0.00;;;5.40;99.90;;;;;;5053176;28;20079;-78
2022/01/21 13:36:54;;;;;;;0.93;0.25;;;5.40;99.90;;;;;;5052838;28;20029;-78
2022/01/21 13:39:34;;;;;;;0.08;0.08;;;5.50;99.90;;;;;;5052652;28;20044;-78
2022/01/21 13:42:10;;;;;;;2.00;1.88;;;5.50;99.90;;;;;;5052624;28;20115;-78
2022/01/21 13:44:41;;;;;;;0.10;0.10;;;5.60;99.90;;;;;;5050898;28;20033;-78
2022/01/21 13:47:41;;;;;;;0.00;0.00;;;5.60;99.90;;;;;;5067920;28;20032;-78
2022/01/21 13:50:22;;;;;;;0.00;0.00;;;5.60;99.90;;;;;;5051399;28;20036;-78
2022/01/21 13:53:06;;;;;;;0.00;0.00;;;5.50;99.90;;;;;;5051278;28;20037;-80
2022/01/21 13:55:51;;;;;;;0.00;0.00;;;5.60;99.90;;;;;;5052508;28;20032;-77
2022/01/21 13:58:21;;;;;;;0.65;0.65;;;5.70;99.90;;;;;;5051272;28;20072;-78
2022/01/21 14:01:06;;;;;;;0.05;0.05;;;5.80;99.90;;;;;;5052994;28;20025;-77
2022/01/21 14:03:43;;;;;;;1.00;1.00;;;5.90;99.90;;;;;;5052602;28;20091;-78
2022/01/21 14:06:20;;;;;;;0.20;0.20;;;6.00;99.90;;;;;;5051403;28;20025;-78
2022/01/21 14:08:52;;;;;;;0.00;0.00;;;5.90;99.90;;;;;;5052720;28;20036;-78
2022/01/21 14:11:25;;;;;;;0.00;0.00;;;6.00;99.90;;;;;;5051188;28;20495;-78
2022/01/21 14:14:00;;;;;;;0.00;0.00;;;5.80;99.90;;;;;;5067722;28;20052;-78
2022/01/21 14:16:39;;;;;;;0.00;0.00;;;5.70;99.90;;;;;;5051121;28;20091;-78
2022/01/21 14:19:12;;;;;;;0.10;0.10;;;5.60;99.90;;;;;;5051090;28;20496;-78
2022/01/21 14:21:42;;;;;;;0.00;0.00;;;5.50;99.90;;;;;;5050994;28;20116;-78